This is the latest recevied weather packets stored in our database for station/object K6FAK-13. If no packets are shown the sender has not sent any weather packets the latest 10 day(s).
| Time | Temp. | Humidity | Pressure | Rain* | Wind** | Luminosity | Snow |
|---|---|---|---|---|---|---|---|
| 1777580044 | 25.56° C | 55% | 1015.5 hPa | 0 mm | - | 753 W/m² | - |
| 1777579740 | 25.56° C | 53% | 1015.7 hPa | 0 mm | - | 757 W/m² | - |
| 1777579438 | 24.44° C | 55% | 1015.6 hPa | 0 mm | - | 762 W/m² | - |
| 1777579133 | 25.56° C | 55% | 1015.8 hPa | 0 mm | - | 768 W/m² | - |
| 1777578529 | 25° C | 56% | 1016.1 hPa | 0 mm | - | 767 W/m² | - |
| 1777577313 | 24.44° C | 56% | 1016.2 hPa | 0 mm | - | 763 W/m² | - |
| 1777576102 | 24.44° C | 56% | 1016.3 hPa | 0 mm | - | 787 W/m² | - |
| 1777574886 | 23.89° C | 56% | 1016.6 hPa | 0 mm | - | 824 W/m² | - |
| 1777571845 | 22.78° C | 57% | 1016.8 hPa | 0 mm | - | 892 W/m² | - |
| 1777571238 | 22.22° C | 59% | 1016.8 hPa | 0 mm | - | 858 W/m² | - |
| 1777570630 | 22.22° C | 58% | 1016.9 hPa | 0 mm | - | 803 W/m² | - |
| 1777569414 | 21.67° C | 59% | 1017.3 hPa | 0 mm | - | 796 W/m² | - |
| 1777567899 | 20.56° C | 61% | 1017.3 hPa | 0 mm | - | 727 W/m² | - |
| 1777566991 | 18.89° C | 66% | 1017.4 hPa | 0 mm | - | 655 W/m² | - |
| 1777565171 | 17.78° C | 69% | 1017.4 hPa | 0 mm | - | 89 W/m² | - |
| 1777564867 | 17.78° C | 70% | 1017 hPa | 0 mm | - | 65 W/m² | - |
| 1777563344 | 16.67° C | 72% | 1017 hPa | 0 mm | - | 63 W/m² | - |
| 1777562736 | 16.11° C | 73% | 1017 hPa | 0 mm | - | 238 W/m² | - |
| 1777562132 | 15.56° C | 74% | 1016.9 hPa | 0 mm | - | 55 W/m² | - |
| 1777561830 | 15.56° C | 75% | 1016.8 hPa | 0 mm | - | 69 W/m² | - |
| 1777560618 | 15° C | 77% | 1016.9 hPa | 0 mm | - | 153 W/m² | - |
| 1777560316 | 13.89° C | 78% | 1016.8 hPa | 0 mm | - | 136 W/m² | - |
| 1777559709 | 13.33° C | 82% | 1016.6 hPa | 0 mm | - | 105 W/m² | - |
| 1777558797 | 12.78° C | 83% | 1016.5 hPa | 0 mm | - | 49 W/m² | - |
| 1777556976 | 11.67° C | 88% | 1016.5 hPa | 0 mm | - | 26 W/m² | - |
* Rain latest hour (hover to see other rain measurements)
** Current wind speed in m/s (hover to see current wind gust speed)